Time;durP1;ratioP1;P1;durP2;ratioP2;P2;SDS_P1;SDS_P2;PMS_P1;PMS_P2;Temp;Humidity;BMP_temperature;BMP_pressure;BME280_temperature;BME280_humidity;BME280_pressure;Samples;Min_cycle;Max_cycle;Signal;HPM_P1;HPM_P2
2023/04/01 00:02:02;;;;;;;0.57;0.20;;;;;;;8.26;100.00;97360.34;5016487;28;20025;-75
2023/04/01 00:04:27;;;;;;;0.35;0.10;;;;;;;8.31;100.00;97377.50;5008921;28;20029;-76
2023/04/01 00:06:53;;;;;;;2.38;0.40;;;;;;;8.26;100.00;97374.66;5009820;28;20032;-75
2023/04/01 00:09:18;;;;;;;2.33;0.22;;;;;;;8.20;100.00;97374.69;5010364;28;20026;-76
2023/04/01 00:11:45;;;;;;;3.65;0.50;;;;;;;8.27;100.00;97380.84;5009341;28;20030;-76
2023/04/01 00:14:10;;;;;;;0.50;0.25;;;;;;;8.28;100.00;97383.34;5008373;28;20396;-76
2023/04/01 00:16:36;;;;;;;2.45;0.22;;;;;;;8.19;100.00;97365.81;4992568;28;20032;-77
2023/04/01 00:19:01;;;;;;;1.50;0.30;;;;;;;8.26;100.00;97379.22;5010757;28;20042;-76
2023/04/01 00:21:27;;;;;;;4.63;0.30;;;;;;;8.20;100.00;97380.94;5011981;28;20053;-76
2023/04/01 00:23:52;;;;;;;1.35;0.30;;;;;;;8.10;100.00;97365.28;5009765;28;20368;-76
2023/04/01 00:26:20;;;;;;;1.27;0.25;;;;;;;8.17;100.00;97389.44;5007319;28;20030;-76
2023/04/01 00:28:46;;;;;;;4.32;0.32;;;;;;;8.22;100.00;97389.59;5019686;28;20030;-76
2023/04/01 00:31:12;;;;;;;0.55;0.20;;;;;;;8.33;100.00;97398.81;5009332;28;20083;-76
2023/04/01 00:33:39;;;;;;;3.13;0.40;;;;;;;8.19;100.00;97389.22;5010947;28;20042;-77
2023/04/01 00:36:06;;;;;;;1.50;0.30;;;;;;;8.23;100.00;97393.13;5009909;28;20521;-77
2023/04/01 00:38:32;;;;;;;3.10;0.40;;;;;;;8.18;100.00;97388.41;5004895;28;20085;-77
2023/04/01 00:40:58;;;;;;;0.63;0.10;;;;;;;8.16;100.00;97381.59;5011810;28;20535;-77
2023/04/01 00:43:23;;;;;;;1.80;0.25;;;;;;;8.06;100.00;97380.22;5012981;28;20056;-75
2023/04/01 00:45:49;;;;;;;1.95;0.20;;;;;;;8.09;100.00;97387.84;4988498;28;20415;-76
2023/04/01 00:48:20;;;;;;;1.48;0.20;;;;;;;7.89;100.00;97366.53;5011651;28;20037;-76
2023/04/01 00:50:52;;;;;;;3.15;0.30;;;;;;;8.13;100.00;97401.72;5011184;28;20030;-76
2023/04/01 00:53:19;;;;;;;2.30;0.30;;;;;;;8.13;100.00;97380.16;5007829;28;20041;-76
2023/04/01 00:55:51;;;;;;;1.05;0.30;;;;;;;8.23;100.00;97403.91;4994880;28;20025;-75
2023/04/01 00:58:21;;;;;;;0.40;0.30;;;;;;;8.16;100.00;97395.06;5001814;28;20037;-76
2023/04/01 01:00:49;;;;;;;1.67;0.40;;;;;;;8.06;100.00;97390.19;5010924;28;20076;-75
2023/04/01 01:03:14;;;;;;;3.42;0.28;;;;;;;8.01;100.00;97393.53;5004270;28;20026;-76
2023/04/01 01:05:52;;;;;;;2.45;0.30;;;;;;;7.86;100.00;97375.03;4992789;28;20368;-75
2023/04/01 01:08:37;;;;;;;2.15;0.20;;;;;;;8.05;100.00;97393.94;4995214;28;20225;-76
2023/04/01 01:11:05;;;;;;;0.52;0.10;;;;;;;8.05;100.00;97375.06;4994924;28;20029;-76
2023/04/01 01:13:43;;;;;;;2.28;0.68;;;;;;;8.18;100.00;97395.69;5010549;28;20041;-74
2023/04/01 01:16:30;;;;;;;1.67;0.33;;;;;;;8.18;100.00;97384.91;5007589;28;20026;-75
2023/04/01 01:19:08;;;;;;;0.30;0.20;;;;;;;8.32;100.00;97394.47;5008752;28;20280;-76
2023/04/01 01:21:53;;;;;;;2.80;0.32;;;;;;;8.23;100.00;97372.41;5011056;28;20087;-76
2023/04/01 01:24:21;;;;;;;2.50;0.38;;;;;;;8.42;100.00;97392.13;5011866;28;20042;-76
2023/04/01 01:26:57;;;;;;;2.05;0.20;;;;;;;8.45;100.00;97398.94;5009874;28;20112;-76
2023/04/01 01:29:50;;;;;;;0.57;0.22;;;;;;;8.51;100.00;97395.34;4989380;28;20488;-76
2023/04/01 01:32:29;;;;;;;2.25;0.57;;;;;;;8.48;100.00;97391.22;5008826;28;20088;-76
2023/04/01 01:35:14;;;;;;;2.13;0.20;;;;;;;8.60;100.00;97391.31;5008775;28;20369;-76
2023/04/01 01:37:41;;;;;;;0.82;0.13;;;;;;;8.45;100.00;97362.03;4987624;28;20029;-77
2023/04/01 01:40:11;;;;;;;0.30;0.17;;;;;;;8.60;100.00;97380.53;5005119;28;20165;-77
2023/04/01 01:42:40;;;;;;;1.27;0.30;;;;;;;8.52;100.00;97378.94;5010198;28;20038;-77
2023/04/01 01:45:08;;;;;;;2.85;0.30;;;;;;;8.62;100.00;97372.19;4991872;28;20033;-77
2023/04/01 01:47:35;;;;;;;3.20;0.50;;;;;;;8.69;100.00;97379.16;4989101;28;20032;-77
2023/04/01 01:50:01;;;;;;;2.63;0.45;;;;;;;8.58;100.00;97365.63;4993560;28;20026;-80
2023/04/01 01:52:29;;;;;;;2.10;0.40;;;;;;;8.54;100.00;97366.06;5009505;28;20040;-77
2023/04/01 01:54:57;;;;;;;2.40;0.47;;;;;;;8.64;100.00;97383.56;5009761;28;20032;-77
2023/04/01 01:57:26;;;;;;;4.55;0.45;;;;;;;8.50;100.00;97359.47;4988294;28;20503;-74
2023/04/01 01:59:54;;;;;;;3.75;1.35;;;;;;;8.56;100.00;97374.72;5007327;28;20095;-74
2023/04/01 02:02:21;;;;;;;2.60;0.30;;;;;;;8.56;100.00;97368.53;5010327;28;20065;-74
2023/04/01 02:04:47;;;;;;;5.07;0.38;;;;;;;8.69;100.00;97379.16;4999731;28;20037;-74
2023/04/01 02:07:20;;;;;;;2.50;0.28;;;;;;;8.64;100.00;97386.28;5010145;28;20480;-77
2023/04/01 02:09:46;;;;;;;2.90;0.30;;;;;;;8.62;100.00;97372.19;5007138;28;20029;-77
2023/04/01 02:12:16;;;;;;;0.50;0.17;;;;;;;8.50;100.00;97370.25;5011658;28;20369;-77
2023/04/01 02:14:47;;;;;;;2.42;0.40;;;;;;;8.61;100.00;97370.56;5009180;28;20054;-77
2023/04/01 02:17:21;;;;;;;3.67;0.35;;;;;;;8.65;100.00;97367.19;4987836;28;20034;-77
2023/04/01 02:19:56;;;;;;;3.40;0.50;;;;;;;8.67;100.00;97378.56;5011003;28;20044;-77
2023/04/01 02:22:26;;;;;;;1.98;0.30;;;;;;;8.38;100.00;97328.06;5004522;28;20486;-75
2023/04/01 02:24:56;;;;;;;0.88;0.30;;;;;;;8.39;100.00;97349.47;5015384;28;20036;-76
2023/04/01 02:27:22;;;;;;;3.60;0.73;;;;;;;8.44;100.00;97349.59;5057090;23;20033;-79
2023/04/01 02:29:47;;;;;;;1.20;0.28;;;;;;;8.52;100.00;97372.75;5011442;28;20514;-79
2023/04/01 02:32:14;;;;;;;2.25;0.35;;;;;;;8.45;100.00;97369.28;5005266;28;20030;-79
2023/04/01 02:34:40;;;;;;;3.90;0.30;;;;;;;8.48;100.00;97383.13;5028793;28;20079;-79
2023/04/01 02:37:06;;;;;;;0.82;0.15;;;;;;;8.41;100.00;97376.16;5023805;28;20025;-79
2023/04/01 02:39:31;;;;;;;1.00;0.30;;;;;;;8.45;100.00;97378.19;5022753;28;20032;-79
2023/04/01 02:41:56;;;;;;;1.75;0.20;;;;;;;8.39;100.00;97389.88;5033452;28;20417;-79
2023/04/01 02:44:22;;;;;;;2.20;0.20;;;;;;;8.30;100.00;97392.00;5017637;28;20026;-79
2023/04/01 02:46:47;;;;;;;0.77;0.30;;;;;;;8.39;100.00;97406.06;5016132;28;20121;-80
2023/04/01 02:49:13;;;;;;;2.28;0.43;;;;;;;8.35;100.00;97394.03;5018929;28;20056;-80
2023/04/01 02:51:38;;;;;;;1.33;0.30;;;;;;;8.25;100.00;97407.19;5017756;28;20033;-79
2023/04/01 02:54:03;;;;;;;0.25;0.20;;;;;;;8.08;100.00;97370.06;5025753;28;20025;-80
2023/04/01 02:56:28;;;;;;;1.40;0.30;;;;;;;8.23;100.00;97368.88;5020567;28;20033;-80
2023/04/01 02:58:54;;;;;;;1.17;0.30;;;;;;;8.01;100.00;97361.22;5023347;28;20040;-80
2023/04/01 03:01:20;;;;;;;4.07;0.22;;;;;;;8.15;100.00;97385.31;5016503;28;20045;-80
2023/04/01 03:03:45;;;;;;;1.65;0.35;;;;;;;8.07;100.00;97371.13;5020236;28;20406;-80
2023/04/01 03:06:13;;;;;;;2.70;0.30;;;;;;;8.22;100.00;97386.91;5019144;28;20036;-80
2023/04/01 03:08:39;;;;;;;3.20;0.25;;;;;;;7.95;100.00;97348.66;5018047;28;20622;-79
2023/04/01 03:11:05;;;;;;;2.95;0.20;;;;;;;8.24;100.00;97395.59;5035103;28;20136;-79
2023/04/01 03:13:31;;;;;;;1.08;0.15;;;;;;;8.05;100.00;97351.66;5018522;28;20034;-79
2023/04/01 03:15:56;;;;;;;0.95;0.30;;;;;;;8.05;100.00;97343.56;5018196;28;20040;-80
2023/04/01 03:18:21;;;;;;;1.98;0.20;;;;;;;8.32;100.00;97379.13;5018274;28;20496;-79
2023/04/01 03:20:47;;;;;;;3.03;0.20;;;;;;;8.29;100.00;97384.97;5014947;28;20568;-79
2023/04/01 03:23:13;;;;;;;1.33;0.10;;;;;;;8.35;100.00;97383.25;5017729;28;20025;-80
2023/04/01 03:25:38;;;;;;;1.02;0.20;;;;;;;8.35;100.00;97383.25;5035768;28;20032;-79
2023/04/01 03:28:03;;;;;;;0.68;0.20;;;;;;;8.13;100.00;97348.66;5017196;28;20053;-80
2023/04/01 03:30:31;;;;;;;1.92;0.22;;;;;;;8.40;100.00;97394.22;5019626;28;20029;-79
2023/04/01 03:32:57;;;;;;;1.02;0.57;;;;;;;8.38;100.00;97387.38;5020558;28;20021;-79
2023/04/01 03:35:22;;;;;;;1.90;0.30;;;;;;;8.38;100.00;97388.19;5021258;28;20028;-79
2023/04/01 03:37:47;;;;;;;2.08;0.30;;;;;;;8.40;100.00;97386.13;4998235;28;20049;-78
2023/04/01 03:40:13;;;;;;;1.75;0.10;;;;;;;8.41;100.00;97398.56;5004708;28;20029;-79
2023/04/01 03:42:38;;;;;;;1.50;0.20;;;;;;;8.27;100.00;97386.25;5017178;28;20072;-79
2023/04/01 03:45:04;;;;;;;3.75;0.65;;;;;;;8.20;100.00;97388.16;5016719;28;20055;-79
2023/04/01 03:47:30;;;;;;;0.70;0.17;;;;;;;7.82;100.00;97329.94;5035369;28;20033;-79
2023/04/01 03:49:55;;;;;;;0.90;0.20;;;;;;;8.00;100.00;97385.69;5014494;28;20087;-79
2023/04/01 03:52:21;;;;;;;2.00;0.25;;;;;;;7.93;100.00;97377.66;5016461;28;20044;-79
2023/04/01 03:54:46;;;;;;;1.10;0.50;;;;;;;7.97;100.00;97389.66;5018210;28;20025;-80
2023/04/01 03:57:11;;;;;;;0.75;0.20;;;;;;;7.90;100.00;97388.88;5010346;28;20039;-79
2023/04/01 03:59:37;;;;;;;0.82;0.20;;;;;;;7.88;100.00;97382.88;5019059;28;20028;-80
2023/04/01 04:02:02;;;;;;;1.73;0.20;;;;;;;7.92;100.00;97385.97;5018954;28;20029;-79
2023/04/01 04:04:28;;;;;;;2.17;0.20;;;;;;;7.96;100.00;97377.22;5022461;28;20072;-80
2023/04/01 04:06:54;;;;;;;0.32;0.10;;;;;;;7.88;100.00;97374.81;5031339;28;20021;-80
2023/04/01 04:09:19;;;;;;;0.35;0.15;;;;;;;7.85;100.00;97375.25;5017770;28;20462;-80
2023/04/01 04:11:44;;;;;;;3.65;0.75;;;;;;;7.87;100.00;97378.56;5017288;28;20061;-80
2023/04/01 04:14:10;;;;;;;0.95;0.17;;;;;;;7.80;100.00;97375.09;5026993;28;20426;-80
2023/04/01 04:16:38;;;;;;;0.00;0.00;;;;;;;7.84;100.00;97387.91;5018027;28;20072;-79
2023/04/01 04:19:04;;;;;;;1.15;0.30;;;;;;;7.85;100.00;97386.84;5018050;28;20166;-80
2023/04/01 04:21:29;;;;;;;0.52;0.15;;;;;;;7.78;100.00;97375.31;5022200;28;20154;-80
2023/04/01 04:23:55;;;;;;;1.65;0.20;;;;;;;7.78;100.00;97396.00;5024199;28;20029;-80
2023/04/01 04:26:20;;;;;;;0.57;0.20;;;;;;;7.75;100.00;97388.38;5035425;28;20044;-80
2023/04/01 04:28:45;;;;;;;0.20;0.03;;;;;;;7.76;100.00;97392.75;5028084;28;20025;-80
2023/04/01 04:31:11;;;;;;;1.55;0.25;;;;;;;7.44;100.00;97337.09;5020347;28;20104;-80
2023/04/01 04:33:36;;;;;;;1.85;0.20;;;;;;;7.56;100.00;97374.06;5016416;28;20021;-79
2023/04/01 04:36:03;;;;;;;0.28;0.10;;;;;;;7.57;100.00;97373.00;5017532;28;20031;-80
2023/04/01 04:38:28;;;;;;;4.22;0.32;;;;;;;7.55;100.00;97372.41;5010584;28;20017;-80
2023/04/01 04:40:55;;;;;;;0.43;0.10;;;;;;;7.61;100.00;97384.97;5021997;28;20079;-80
2023/04/01 04:43:21;;;;;;;1.95;0.30;;;;;;;7.60;100.00;97381.47;5011063;28;20068;-79
2023/04/01 04:45:46;;;;;;;2.00;0.20;;;;;;;7.51;100.00;97374.69;5015795;28;20052;-80
2023/04/01 04:48:18;;;;;;;1.48;0.25;;;;;;;7.64;100.00;97381.84;5015989;28;20026;-80
2023/04/01 04:50:43;;;;;;;3.30;0.20;;;;;;;7.65;100.00;97384.34;5014653;28;20021;-80
2023/04/01 04:53:11;;;;;;;1.02;0.28;;;;;;;7.65;100.00;97378.94;5032718;28;20036;-80
2023/04/01 04:55:36;;;;;;;0.47;0.35;;;;;;;7.61;100.00;97371.53;5034084;28;20487;-80
2023/04/01 04:58:01;;;;;;;0.10;0.10;;;;;;;7.80;100.00;97380.47;5015794;28;20115;-75
2023/04/01 05:00:27;;;;;;;3.15;0.20;;;;;;;7.77;100.00;97383.63;5027511;28;20076;-75
2023/04/01 05:02:53;;;;;;;0.32;0.15;;;;;;;7.68;100.00;97362.34;5041542;28;20475;-75
2023/04/01 05:05:18;;;;;;;1.50;0.20;;;;;;;7.79;100.00;97378.84;5023886;28;20025;-75
2023/04/01 05:07:43;;;;;;;1.98;0.60;;;;;;;7.81;100.00;97361.41;5033445;28;20490;-75
2023/04/01 05:10:09;;;;;;;1.00;0.43;;;;;;;7.89;100.00;97369.22;5032585;28;20379;-75
2023/04/01 05:12:37;;;;;;;0.75;0.30;;;;;;;7.95;100.00;97372.88;5014285;28;20037;-76
2023/04/01 05:15:06;;;;;;;2.35;0.22;;;;;;;8.05;100.00;97373.19;5032458;28;20029;-76
2023/04/01 05:17:32;;;;;;;;;;;;;;;8.07;100.00;97375.69;5033415;28;20053;-76
2023/04/01 05:19:58;;;;;;;1.23;0.35;;;;;;;8.09;100.00;97371.69;5006014;28;20408;-75
2023/04/01 05:22:23;;;;;;;1.50;0.55;;;;;;;8.04;100.00;97365.34;5032114;28;20102;-76
2023/04/01 05:24:48;;;;;;;0.73;0.30;;;;;;;8.03;100.00;97351.03;5021775;28;20053;-77
2023/04/01 05:27:15;;;;;;;1.40;0.30;;;;;;;8.06;100.00;97347.91;5015181;28;20033;-76
2023/04/01 05:29:40;;;;;;;3.33;0.30;;;;;;;8.11;100.00;97350.75;5013548;28;20079;-79
2023/04/01 05:32:06;;;;;;;2.00;0.35;;;;;;;8.21;100.00;97360.19;5012468;28;20543;-80
2023/04/01 05:34:31;;;;;;;0.73;0.22;;;;;;;8.09;100.00;97344.75;5015131;28;20025;-75
2023/04/01 05:36:56;;;;;;;1.05;0.10;;;;;;;8.09;100.00;97350.16;5013946;28;20029;-74
2023/04/01 05:39:23;;;;;;;0.57;0.20;;;;;;;8.14;100.00;97371.03;5018380;28;20668;-74
2023/04/01 05:41:48;;;;;;;1.63;0.40;;;;;;;8.11;100.00;97369.59;5020028;28;20112;-78
2023/04/01 05:44:13;;;;;;;1.17;0.20;;;;;;;8.09;100.00;97357.41;5015978;28;20464;-79
2023/04/01 05:46:39;;;;;;;2.92;0.13;;;;;;;8.04;100.00;97344.63;5029499;28;20383;-78
2023/04/01 05:49:04;;;;;;;1.10;0.30;;;;;;;8.10;100.00;97348.28;5014142;28;20040;-78
2023/04/01 05:51:29;;;;;;;1.98;0.20;;;;;;;8.18;100.00;97352.56;5016814;28;20029;-79
2023/04/01 05:53:55;;;;;;;1.48;0.17;;;;;;;7.92;100.00;97330.25;5023593;28;20502;-79
2023/04/01 05:56:20;;;;;;;2.28;0.40;;;;;;;8.10;100.00;97332.94;5021888;28;20112;-76
2023/04/01 05:58:51;;;;;;;2.60;0.30;;;;;;;8.08;100.00;97334.22;5019418;28;20026;-76
2023/04/01 06:01:16;;;;;;;0.88;0.20;;;;;;;8.10;100.00;97334.84;5011254;28;20037;-76
2023/04/01 06:03:41;;;;;;;4.20;0.88;;;;;;;8.06;100.00;97347.91;5031837;28;20025;-77
2023/04/01 06:06:15;;;;;;;3.03;0.40;;;;;;;8.05;100.00;97340.88;5014935;28;20033;-77
2023/04/01 06:08:41;;;;;;;0.88;0.30;;;;;;;8.07;100.00;97352.25;5031800;28;20022;-76
2023/04/01 06:11:10;;;;;;;1.75;0.20;;;;;;;8.17;100.00;97353.59;5040395;28;20021;-76
2023/04/01 06:14:05;;;;;;;2.13;1.05;;;;;;;8.17;100.00;97343.63;5032029;28;20034;-76
2023/04/01 06:16:54;;;;;;;0.90;0.17;;;;;;;8.17;100.00;97353.59;5023541;28;20040;-75
2023/04/01 06:19:22;;;;;;;1.83;0.17;;;;;;;8.19;100.00;97356.91;5016026;28;20029;-77
2023/04/01 06:22:22;;;;;;;1.33;0.40;;;;;;;8.22;100.00;97351.06;5021432;28;20083;-76
2023/04/01 06:25:09;;;;;;;3.03;0.40;;;;;;;8.22;100.00;97356.44;5033674;28;20041;-76
2023/04/01 06:27:44;;;;;;;3.00;0.35;;;;;;;8.23;100.00;97348.16;5034029;28;20835;-77
2023/04/01 06:30:30;;;;;;;4.75;0.32;;;;;;;8.25;100.00;97345.22;5017463;28;20029;-77
2023/04/01 06:33:25;;;;;;;1.90;0.50;;;;;;;8.32;100.00;97362.16;5032260;28;20053;-77
2023/04/01 06:35:59;;;;;;;0.80;0.47;;;;;;;8.40;100.00;97348.41;5038983;28;20068;-76
2023/04/01 06:38:37;;;;;;;1.08;0.52;;;;;;;8.48;100.00;97349.97;5015617;28;20461;-76
2023/04/01 06:41:33;;;;;;;2.45;0.45;;;;;;;8.57;100.00;97345.94;5017314;28;20025;-77
2023/04/01 06:44:33;;;;;;;4.07;0.60;;;;;;;8.63;100.00;97336.94;5030563;28;20033;-77
2023/04/01 06:47:20;;;;;;;4.57;0.40;;;;;;;8.77;100.00;97334.88;5014826;28;20112;-79
2023/04/01 06:50:22;;;;;;;6.00;0.63;;;;;;;8.81;100.00;97343.34;5017197;28;20048;-79
2023/04/01 06:53:03;;;;;;;4.50;0.30;;;;;;;8.92;100.00;97342.56;5028360;28;20091;-77
2023/04/01 06:55:48;;;;;;;2.08;0.40;;;;;;;8.89;100.00;97345.72;5036033;28;20498;-77
2023/04/01 06:58:21;;;;;;;0.60;0.30;;;;;;;8.85;100.00;97348.03;5018183;28;20039;-77
2023/04/01 07:00:50;;;;;;;3.50;0.70;;;;;;;8.86;100.00;97347.00;5037980;28;20026;-81
2023/04/01 07:06:58;;;;;;;2.63;0.57;;;;;;;8.55;100.00;97312.97;5035613;28;20395;-77
2023/04/01 07:09:34;;;;;;;2.47;0.68;;;;;;;8.90;100.00;97358.16;5008918;28;20025;-77
2023/04/01 07:12:11;;;;;;;1.83;0.43;;;;;;;8.95;100.00;97345.63;5010196;28;20029;-76
2023/04/01 07:14:41;;;;;;;4.75;1.00;;;;;;;9.00;100.00;97348.44;5014381;28;20036;-77
2023/04/01 07:17:21;;;;;;;1.52;0.43;;;;;;;8.98;100.00;97350.56;5028286;28;21125;-77
2023/04/01 07:20:10;;;;;;;1.33;0.50;;;;;;;9.05;100.00;97357.75;5028269;28;20055;-77
2023/04/01 07:22:40;;;;;;;1.85;0.50;;;;;;;9.06;100.00;97340.50;5009228;28;20091;-77
2023/04/01 07:25:12;;;;;;;1.85;0.60;;;;;;;9.20;100.00;97353.56;5021530;28;20094;-77
2023/04/01 07:27:38;;;;;;;4.25;1.27;;;;;;;9.30;100.00;97339.53;5033062;28;20029;-77
2023/04/01 07:30:14;;;;;;;2.15;0.73;;;;;;;9.28;100.00;97343.50;5015620;28;20029;-76
2023/04/01 07:32:50;;;;;;;7.35;2.78;;;;;;;9.23;100.00;97355.00;5028691;28;20052;-76
2023/04/01 07:35:33;;;;;;;4.97;1.75;;;;;;;9.31;100.00;97362.75;5027927;28;20033;-77
2023/04/01 07:38:31;;;;;;;6.22;0.82;;;;;;;9.35;100.00;97369.34;5029539;28;20036;-77
2023/04/01 07:41:05;;;;;;;0.85;0.38;;;;;;;9.38;100.00;97374.28;5014868;28;20499;-77
2023/04/01 07:43:50;;;;;;;1.17;0.20;;;;;;;9.40;100.00;97372.16;5038115;28;20025;-77
2023/04/01 07:46:30;;;;;;;0.73;0.17;;;;;;;9.66;100.00;97375.50;5006825;28;20028;-77
2023/04/01 07:49:11;;;;;;;0.68;0.30;;;;;;;9.60;100.00;97373.75;5009291;28;20048;-76
2023/04/01 07:51:59;;;;;;;6.80;1.60;;;;;;;9.63;100.00;97362.47;5015322;28;20413;-77
2023/04/01 07:54:46;;;;;;;3.60;0.70;;;;;;;9.70;100.00;97368.59;5028148;28;20025;-76
2023/04/01 07:57:41;;;;;;;6.80;1.45;;;;;;;9.72;100.00;97381.84;5030482;28;20021;-77
2023/04/01 08:00:29;;;;;;;9.95;2.42;;;;;;;9.69;100.00;97371.50;5016986;28;20030;-77
2023/04/01 08:03:22;;;;;;;5.85;1.98;;;;;;;9.94;100.00;97368.59;5017611;28;20018;-77
2023/04/01 08:05:53;;;;;;;9.48;3.38;;;;;;;9.67;100.00;97371.75;5009405;28;20402;-77
2023/04/01 08:08:31;;;;;;;2.80;0.95;;;;;;;9.56;100.00;97362.59;5029449;28;20053;-77
2023/04/01 08:11:34;;;;;;;2.35;0.50;;;;;;;9.50;100.00;97368.91;5025347;28;20487;-77
2023/04/01 08:14:36;;;;;;;2.25;0.40;;;;;;;9.70;100.00;97368.59;5012671;28;20115;-76
2023/04/01 08:17:12;;;;;;;1.35;0.30;;;;;;;9.72;100.00;97371.88;5030315;28;20030;-77
2023/04/01 08:20:10;;;;;;;0.45;0.20;;;;;;;9.64;100.00;97374.91;5028523;28;20036;-77
2023/04/01 08:22:46;;;;;;;1.35;0.20;;;;;;;9.56;100.00;97373.38;5005158;28;20026;-77
2023/04/01 08:25:24;;;;;;;0.70;0.20;;;;;;;9.62;100.00;97372.44;5016987;28;20033;-77
2023/04/01 08:28:07;;;;;;;2.47;0.30;;;;;;;9.56;100.00;97381.50;5045085;23;20423;-78
2023/04/01 08:31:01;;;;;;;1.65;0.25;;;;;;;9.57;100.00;97379.59;5022858;28;20402;-78
2023/04/01 08:33:30;;;;;;;0.65;0.17;;;;;;;9.58;100.00;97390.16;5030126;28;20029;-78
2023/04/01 08:36:16;;;;;;;0.47;0.05;;;;;;;9.34;100.00;97377.66;5027446;28;20041;-78
2023/04/01 08:38:55;;;;;;;1.77;0.17;;;;;;;9.15;100.00;97390.41;4991686;28;20030;-78
2023/04/01 08:42:01;;;;;;;0.55;0.10;;;;;;;8.92;100.00;97396.50;5007689;28;20052;-79
2023/04/01 08:45:03;;;;;;;0.63;0.10;;;;;;;8.89;100.00;97408.56;5007076;28;20053;-79
2023/04/01 08:47:50;;;;;;;2.25;0.30;;;;;;;8.82;100.00;97410.53;5006422;28;20018;-78
2023/04/01 08:50:23;;;;;;;1.45;0.30;;;;;;;8.84;100.00;97403.03;5005638;28;20033;-77
2023/04/01 08:53:00;;;;;;;2.47;0.60;;;;;;;8.70;100.00;97401.56;5008174;28;20083;-78
2023/04/01 08:55:43;;;;;;;2.72;0.43;;;;;;;8.77;100.00;97415.78;4990820;28;20400;-78
2023/04/01 08:58:24;;;;;;;1.98;0.85;;;;;;;8.71;100.00;97411.28;4990204;28;20059;-80
2023/04/01 09:01:13;;;;;;;2.45;0.82;;;;;;;8.69;100.00;97410.69;4995239;28;20529;-83
2023/04/01 09:03:57;;;;;;;0.35;0.13;;;;;;;8.43;100.00;97401.84;5024770;28;20064;-85
2023/04/01 09:06:33;;;;;;;1.05;0.25;;;;;;;8.45;100.00;97407.84;5015733;28;20022;-81
2023/04/01 09:09:19;;;;;;;1.15;0.20;;;;;;;8.38;100.00;97398.16;5000981;28;20553;-82
2023/04/01 09:11:46;;;;;;;0.45;0.10;;;;;;;8.31;100.00;97409.81;5003424;28;20036;-78
2023/04/01 09:14:31;;;;;;;0.65;0.20;;;;;;;8.07;100.00;97392.66;5018526;28;20049;-85
2023/04/01 09:17:23;;;;;;;0.60;0.20;;;;;;;8.18;100.00;97414.53;5021372;28;20034;-81
2023/04/01 09:20:14;;;;;;;0.93;0.30;;;;;;;8.21;100.00;97416.78;5015853;28;20076;-84
2023/04/01 09:23:01;;;;;;;0.85;0.30;;;;;;;8.18;100.00;97399.19;5010508;28;20030;-79
2023/04/01 09:25:50;;;;;;;1.15;0.47;;;;;;;8.39;100.00;97418.69;4999870;28;20029;-80
2023/04/01 09:28:27;;;;;;;0.57;0.28;;;;;;;8.56;100.00;97420.56;4990176;28;20040;-78
2023/04/01 09:31:17;;;;;;;1.90;0.47;;;;;;;8.60;100.00;97402.09;5015064;28;20522;-81
2023/04/01 09:34:18;;;;;;;1.30;0.45;;;;;;;8.70;100.00;97420.44;4995867;28;20028;-84
2023/04/01 09:36:47;;;;;;;0.40;0.20;;;;;;;8.70;100.00;97407.78;4969774;28;20034;-74
2023/04/01 09:39:35;;;;;;;0.73;0.30;;;;;;;8.80;100.00;97418.00;5002396;28;20105;-77
2023/04/01 09:42:00;;;;;;;1.10;0.32;;;;;;;8.98;100.00;97426.09;5012665;28;20157;-79
2023/04/01 09:44:54;;;;;;;1.10;0.15;;;;;;;8.95;100.00;97426.53;4990014;28;20053;-74
2023/04/01 09:47:42;;;;;;;1.45;0.20;;;;;;;8.99;100.00;97424.22;4993749;28;20032;-75
2023/04/01 09:50:32;;;;;;;0.40;0.28;;;;;;;8.93;100.00;97419.72;5007479;28;20028;-75
2023/04/01 09:53:10;;;;;;;1.25;0.40;;;;;;;8.77;100.00;97419.28;5010840;28;20472;-75
2023/04/01 09:55:57;;;;;;;0.82;0.30;;;;;;;8.89;100.00;97423.94;5011538;28;20041;-75
2023/04/01 09:58:38;;;;;;;0.32;0.10;;;;;;;8.89;100.00;97424.75;5009215;28;20033;-75
2023/04/01 10:01:06;;;;;;;1.15;0.30;;;;;;;8.87;100.00;97415.25;5008414;28;20029;-75
2023/04/01 10:04:08;;;;;;;1.55;0.10;;;;;;;8.85;100.00;97410.06;5009069;28;20014;-73
2023/04/01 10:07:13;;;;;;;0.65;0.25;;;;;;;8.80;100.00;97401.84;5007907;28;20036;-74
2023/04/01 10:10:03;;;;;;;0.35;0.10;;;;;;;8.88;100.00;97425.81;4988699;28;20605;-74
2023/04/01 10:13:02;;;;;;;0.10;0.10;;;;;;;8.94;100.00;97424.91;5012856;28;20116;-83
2023/04/01 10:15:39;;;;;;;0.22;0.10;;;;;;;8.89;100.00;97421.25;4989703;28;20069;-84
2023/04/01 10:18:31;;;;;;;0.40;0.20;;;;;;;8.97;100.00;97429.03;5012125;28;20077;-82
2023/04/01 10:21:14;;;;;;;0.10;0.05;;;;;;;8.95;100.00;97404.97;5003899;28;20036;-76
2023/04/01 10:23:55;;;;;;;0.00;0.00;;;;;;;9.11;100.00;97408.91;4992203;28;20105;-77
2023/04/01 10:26:29;;;;;;;2.58;1.20;;;;;;;9.25;100.00;97425.75;5004597;28;20395;-77
2023/04/01 10:29:11;;;;;;;0.30;0.17;;;;;;;9.11;100.00;97417.00;5006886;28;20169;-77
2023/04/01 10:32:02;;;;;;;0.08;0.00;;;;;;;8.91;100.00;97406.47;5017717;28;20026;-78
2023/04/01 10:34:55;;;;;;;0.30;0.10;;;;;;;8.98;100.00;97407.19;5016610;28;20068;-77
2023/04/01 10:37:41;;;;;;;0.03;0.03;;;;;;;8.90;100.00;97417.47;5006413;28;20026;-78
2023/04/01 10:40:29;;;;;;;0.13;0.10;;;;;;;8.82;100.00;97421.31;5013920;28;20030;-77
2023/04/01 10:43:24;;;;;;;0.30;0.10;;;;;;;8.77;100.00;97427.38;4998699;28;20181;-77
2023/04/01 10:46:24;;;;;;;0.00;0.00;;;;;;;8.80;100.00;97422.59;5002607;28;20474;-77
2023/04/01 10:49:15;;;;;;;0.00;0.00;;;;;;;8.92;100.00;97407.31;5016439;28;20029;-76
2023/04/01 10:52:14;;;;;;;0.10;0.00;;;;;;;8.91;100.00;97419.97;4998556;28;20514;-75
2023/04/01 10:55:10;;;;;;;0.40;0.10;;;;;;;8.96;100.00;97425.50;5010626;28;20034;-76
2023/04/01 10:57:45;;;;;;;1.67;0.00;;;;;;;8.95;100.00;97406.84;5013187;28;20026;-76
2023/04/01 11:00:28;;;;;;;0.08;0.00;;;;;;;9.06;100.00;97411.47;5012640;28;20073;-75
2023/04/01 11:03:12;;;;;;;0.20;0.00;;;;;;;8.95;100.00;97410.34;5012541;28;20033;-77
2023/04/01 11:05:56;;;;;;;0.30;0.00;;;;;;;9.08;100.00;97419.34;4999659;28;20030;-77
2023/04/01 11:08:24;;;;;;;0.13;0.00;;;;;;;9.11;100.00;97418.88;5017932;28;20028;-77
2023/04/01 11:11:18;;;;;;;0.85;0.00;;;;;;;8.95;100.00;97402.25;5014879;28;20025;-76
2023/04/01 11:14:21;;;;;;;0.08;0.00;;;;;;;9.15;100.00;97422.78;5015505;28;20017;-76
2023/04/01 11:17:10;;;;;;;0.20;0.00;;;;;;;9.15;100.00;97429.00;4994243;28;20435;-76
2023/04/01 11:19:46;;;;;;;0.28;0.00;;;;;;;9.18;100.00;97425.00;5018426;28;20144;-78
2023/04/01 11:22:45;;;;;;;0.00;0.00;;;;;;;9.30;100.00;97423.19;5036348;28;20099;-76
2023/04/01 11:25:36;;;;;;;0.00;0.00;;;;;;;9.15;100.00;97402.00;5015805;28;20026;-77
2023/04/01 11:28:20;;;;;;;0.20;0.10;;;;;;;9.12;100.00;97413.25;5014821;28;20025;-76
2023/04/01 11:31:10;;;;;;;0.10;0.00;;;;;;;9.20;100.00;97429.13;5012626;28;20104;-76
2023/04/01 11:33:43;;;;;;;0.90;0.10;;;;;;;9.14;100.00;97427.34;5012209;28;20025;-76
2023/04/01 11:36:24;;;;;;;0.05;0.00;;;;;;;9.24;100.00;97426.78;4989917;28;20033;-76
2023/04/01 11:39:14;;;;;;;0.00;0.00;;;;;;;9.26;100.00;97411.19;4992834;28;20036;-79
2023/04/01 11:41:57;;;;;;;0.10;0.00;;;;;;;9.48;100.00;97435.78;5003130;28;20049;-76
2023/04/01 11:44:29;;;;;;;0.25;0.10;;;;;;;9.58;100.00;97437.94;5016523;28;20033;-79
2023/04/01 11:47:19;;;;;;;0.10;0.00;;;;;;;9.65;100.00;97430.56;4995162;28;20116;-77
2023/04/01 11:49:49;;;;;;;0.03;0.00;;;;;;;9.64;100.00;97440.56;5012829;28;20046;-77
2023/04/01 11:52:38;;;;;;;0.52;0.00;;;;;;;9.70;100.00;97430.69;4979313;28;20112;-77
2023/04/01 11:55:25;;;;;;;2.00;0.10;;;;;;;9.82;100.00;97425.31;4995274;28;20060;-76
2023/04/01 11:57:53;;;;;;;0.00;0.00;;;;;;;9.79;100.00;97421.19;5014736;28;20476;-77
2023/04/01 12:00:26;;;;;;;0.00;0.00;;;;;;;9.79;100.00;97429.28;5013133;28;20034;-77
2023/04/01 12:03:02;;;;;;;0.10;0.10;;;;;;;9.77;100.00;97422.47;5016704;28;20493;-76
2023/04/01 12:05:46;;;;;;;0.03;0.03;;;;;;;9.76;100.00;97445.97;4996299;28;20026;-76
2023/04/01 12:08:41;;;;;;;0.00;0.00;;;;;;;9.74;100.00;97444.56;4994562;28;20088;-74
2023/04/01 12:11:20;;;;;;;0.15;0.00;;;;;;;9.80;100.00;97449.88;5007566;28;20586;-75
2023/04/01 12:14:04;;;;;;;0.30;0.05;;;;;;;9.74;100.00;97439.97;5016292;28;20483;-78
2023/04/01 12:16:45;;;;;;;0.00;0.00;;;;;;;9.96;100.00;97450.25;5013863;28;20041;-74